Time;durP1;ratioP1;P1;durP2;ratioP2;P2;SDS_P1;SDS_P2;PMS_P1;PMS_P2;Temp;Humidity;BMP_temperature;BMP_pressure;BME280_temperature;BME280_humidity;BME280_pressure;Samples;Min_cycle;Max_cycle;Signal;HPM_P1;HPM_P2
2022/05/25 00:01:19;;;;;;;3.20;2.70;;;8.00;99.90;;;;;;4896974;29;20049;-76
2022/05/25 00:03:46;;;;;;;6.03;3.28;;;8.00;99.90;;;;;;4898101;29;20588;-77
2022/05/25 00:06:14;;;;;;;11.10;3.30;;;8.00;99.90;;;;;;4897914;29;20080;-77
2022/05/25 00:08:42;;;;;;;5.57;3.38;;;7.90;99.90;;;;;;4897509;29;20065;-76
2022/05/25 00:11:10;;;;;;;5.75;3.30;;;7.90;99.90;;;;;;4897885;29;20147;-77
2022/05/25 00:13:39;;;;;;;5.93;3.33;;;7.90;99.90;;;;;;4880322;29;20107;-77
2022/05/25 00:16:06;;;;;;;9.02;3.25;;;7.80;99.90;;;;;;4896976;29;20167;-76
2022/05/25 00:18:33;;;;;;;8.68;3.60;;;7.80;99.90;;;;;;4895948;29;20592;-76
2022/05/25 00:21:00;;;;;;;4.70;3.53;;;7.70;99.90;;;;;;4896515;29;20045;-76
2022/05/25 00:23:27;;;;;;;14.73;3.50;;;7.70;99.90;;;;;;4881361;29;20045;-76
2022/05/25 00:25:56;;;;;;;8.57;4.28;;;7.60;99.90;;;;;;4897937;29;20552;-76
2022/05/25 00:28:25;;;;;;;10.73;4.20;;;7.60;99.90;;;;;;4896503;29;20135;-76
2022/05/25 00:30:54;;;;;;;10.20;3.90;;;7.60;99.90;;;;;;4896307;29;20061;-79
2022/05/25 00:33:21;;;;;;;11.00;3.88;;;7.50;99.90;;;;;;4889334;29;20502;-76
2022/05/25 00:35:49;;;;;;;7.97;3.38;;;7.50;99.90;;;;;;4896303;29;20524;-76
2022/05/25 00:38:16;;;;;;;9.07;3.53;;;7.50;99.90;;;;;;4897789;29;20104;-76
2022/05/25 00:40:46;;;;;;;6.85;4.38;;;7.50;99.90;;;;;;4897786;29;20564;-76
2022/05/25 00:43:15;;;;;;;9.95;4.28;;;7.40;99.90;;;;;;4896411;29;20147;-77
2022/05/25 00:45:45;;;;;;;9.93;4.32;;;7.40;99.90;;;;;;4896642;29;21101;-76
2022/05/25 00:48:20;;;;;;;15.52;4.68;;;7.40;99.90;;;;;;4896590;29;20139;-77
2022/05/25 00:53:34;;;;;;;14.98;4.80;;;7.30;99.90;;;;;;4896075;29;20052;-77
2022/05/25 00:56:02;;;;;;;9.52;4.28;;;7.30;99.90;;;;;;4896749;29;20408;-77
2022/05/25 00:58:29;;;;;;;11.82;4.53;;;7.20;99.90;;;;;;4896532;29;20044;-77
2022/05/25 01:00:57;;;;;;;14.68;4.47;;;7.20;99.90;;;;;;4896304;29;20084;-77
2022/05/25 01:03:26;;;;;;;6.85;3.97;;;7.10;99.90;;;;;;4894907;29;20044;-76
2022/05/25 01:06:04;;;;;;;8.45;4.13;;;7.10;99.90;;;;;;4896042;29;20617;-76
2022/05/25 01:08:40;;;;;;;11.52;3.97;;;7.10;99.90;;;;;;4896912;29;20067;-77
2022/05/25 01:11:22;;;;;;;12.75;4.47;;;7.00;99.90;;;;;;4897640;29;20065;-78
2022/05/25 01:13:57;;;;;;;9.18;4.63;;;7.00;99.90;;;;;;4896433;29;20082;-77
2022/05/25 01:16:34;;;;;;;11.45;4.30;;;7.00;99.90;;;;;;4895685;29;20052;-77
2022/05/25 01:19:20;;;;;;;8.35;3.50;;;7.00;99.90;;;;;;4895593;29;20151;-77
2022/05/25 01:21:58;;;;;;;9.77;4.18;;;6.90;99.90;;;;;;4895976;29;20052;-77
2022/05/25 01:24:37;;;;;;;10.82;4.70;;;7.00;99.90;;;;;;4880253;29;20057;-77
2022/05/25 01:27:34;;;;;;;7.18;4.20;;;7.00;99.90;;;;;;4880130;29;20148;-76
2022/05/25 01:30:15;;;;;;;8.00;3.72;;;6.90;99.90;;;;;;4895435;29;20056;-77
2022/05/25 01:33:03;;;;;;;9.98;4.10;;;6.90;99.90;;;;;;4895569;29;20152;-77
2022/05/25 01:35:38;;;;;;;7.97;3.80;;;6.90;99.90;;;;;;4896248;29;20557;-77
2022/05/25 01:38:09;;;;;;;7.50;4.03;;;6.90;99.90;;;;;;4879769;29;20581;-77
2022/05/25 01:40:43;;;;;;;14.88;4.40;;;6.90;99.90;;;;;;4895370;29;20080;-77
2022/05/25 01:43:15;;;;;;;8.52;4.10;;;6.90;99.90;;;;;;4895569;29;20127;-76
2022/05/25 01:45:49;;;;;;;10.77;3.90;;;6.90;99.90;;;;;;4879751;29;20406;-76
2022/05/25 01:48:18;;;;;;;9.98;4.28;;;6.80;99.90;;;;;;4895502;29;20083;-76
2022/05/25 01:50:51;;;;;;;12.30;4.38;;;6.80;99.90;;;;;;4896049;29;20064;-76
2022/05/25 01:53:21;;;;;;;10.55;4.50;;;6.80;99.90;;;;;;4894942;29;20068;-76
2022/05/25 01:55:52;;;;;;;13.98;4.65;;;6.80;99.90;;;;;;4894571;29;20061;-77
2022/05/25 01:58:21;;;;;;;8.40;4.75;;;6.80;99.90;;;;;;4895589;29;20045;-77
2022/05/25 02:00:52;;;;;;;8.82;4.35;;;6.90;99.90;;;;;;4896379;29;20055;-75
2022/05/25 02:06:26;;;;;;;13.32;4.82;;;6.90;99.90;;;;;;4880209;29;20044;-76
2022/05/25 02:09:11;;;;;;;9.82;5.10;;;6.90;99.90;;;;;;4886912;29;20641;-75
2022/05/25 02:11:41;;;;;;;12.27;4.95;;;6.90;99.90;;;;;;4896410;29;20139;-76
2022/05/25 02:14:25;;;;;;;12.80;4.90;;;6.80;99.90;;;;;;4894744;29;20049;-76
2022/05/25 02:17:02;;;;;;;12.18;4.60;;;6.80;99.90;;;;;;4895151;29;20544;-77
2022/05/25 02:19:37;;;;;;;13.15;5.80;;;6.80;99.90;;;;;;4896189;29;20132;-77
2022/05/25 02:22:10;;;;;;;10.27;5.28;;;6.80;99.90;;;;;;4878813;29;20048;-77
2022/05/25 02:24:44;;;;;;;8.13;4.93;;;6.90;99.90;;;;;;4868421;29;20160;-77
2022/05/25 02:27:16;;;;;;;12.15;5.85;;;6.80;99.90;;;;;;4894153;29;20147;-76
2022/05/25 02:29:46;;;;;;;15.50;5.13;;;6.90;99.90;;;;;;4894847;29;20048;-76
2022/05/25 02:32:19;;;;;;;16.38;5.60;;;6.90;99.90;;;;;;4878895;29;20513;-77
2022/05/25 02:34:50;;;;;;;11.27;5.25;;;7.00;99.90;;;;;;4893651;29;20484;-76
2022/05/25 02:37:20;;;;;;;13.25;5.75;;;7.00;99.90;;;;;;4894857;29;20147;-76
2022/05/25 02:39:47;;;;;;;15.88;6.13;;;7.00;99.90;;;;;;4881126;29;20049;-76
2022/05/25 02:42:17;;;;;;;11.20;5.40;;;7.00;99.90;;;;;;4895704;29;20418;-76
2022/05/25 02:44:44;;;;;;;13.65;5.78;;;7.00;99.90;;;;;;4908931;29;20088;-76
2022/05/25 02:47:12;;;;;;;14.48;5.85;;;7.00;99.90;;;;;;4895905;29;20108;-76
2022/05/25 02:49:41;;;;;;;12.30;5.78;;;7.00;99.90;;;;;;4895970;29;20071;-76
2022/05/25 02:52:10;;;;;;;15.27;5.28;;;7.00;99.90;;;;;;4877462;29;20544;-76
2022/05/25 02:54:38;;;;;;;16.67;6.20;;;7.10;99.90;;;;;;4894226;29;20155;-77
2022/05/25 02:57:06;;;;;;;16.58;5.65;;;7.10;99.90;;;;;;4895324;29;20112;-76
2022/05/25 02:59:33;;;;;;;14.48;6.35;;;7.10;99.90;;;;;;4893985;29;20037;-77
2022/05/25 03:02:02;;;;;;;11.43;4.93;;;7.10;99.90;;;;;;4895120;29;20049;-76
2022/05/25 03:04:30;;;;;;;15.77;6.10;;;7.20;99.90;;;;;;4894893;29;20100;-76
2022/05/25 03:06:58;;;;;;;15.95;5.45;;;7.20;99.90;;;;;;4894123;29;20165;-77
2022/05/25 03:09:26;;;;;;;14.15;5.32;;;7.30;99.90;;;;;;4894427;29;20510;-77
2022/05/25 03:11:53;;;;;;;16.75;5.40;;;7.30;99.90;;;;;;4895154;29;20105;-77
2022/05/25 03:14:20;;;;;;;13.25;5.18;;;7.40;99.90;;;;;;4895624;29;20100;-76
2022/05/25 03:16:48;;;;;;;10.60;4.90;;;7.40;99.90;;;;;;4895672;29;20049;-78
2022/05/25 03:19:15;;;;;;;15.95;5.68;;;7.40;99.90;;;;;;4893214;29;20036;-77
2022/05/25 03:21:42;;;;;;;13.05;4.50;;;7.50;99.90;;;;;;4897434;29;20132;-77
2022/05/25 03:24:11;;;;;;;12.23;5.00;;;7.50;99.90;;;;;;4882210;29;20118;-77
2022/05/25 03:26:38;;;;;;;6.18;4.30;;;7.60;99.90;;;;;;4897685;29;20056;-76
2022/05/25 03:29:06;;;;;;;11.05;4.90;;;7.70;99.90;;;;;;4881185;29;20041;-77
2022/05/25 03:31:34;;;;;;;17.88;6.45;;;7.70;99.90;;;;;;4897084;29;20048;-78
2022/05/25 03:34:01;;;;;;;11.60;4.93;;;7.70;99.90;;;;;;4897384;29;20514;-77
2022/05/25 03:36:29;;;;;;;10.90;5.03;;;7.80;99.90;;;;;;4899099;29;20099;-76
2022/05/25 03:38:58;;;;;;;9.18;4.47;;;7.80;99.90;;;;;;4895777;29;20056;-77
2022/05/25 03:41:27;;;;;;;14.07;4.65;;;7.90;99.90;;;;;;4898753;29;20049;-77
2022/05/25 03:43:54;;;;;;;8.85;4.10;;;7.90;99.90;;;;;;4897404;29;20436;-77
2022/05/25 03:46:21;;;;;;;5.55;3.72;;;8.00;99.90;;;;;;4896408;29;20047;-77
2022/05/25 03:48:48;;;;;;;7.80;4.60;;;8.10;99.90;;;;;;4898601;29;20064;-77
2022/05/25 03:51:15;;;;;;;6.20;3.17;;;8.10;99.90;;;;;;4897523;29;20104;-76
2022/05/25 03:53:43;;;;;;;7.60;3.55;;;8.10;99.90;;;;;;4898508;29;20044;-76
2022/05/25 03:56:10;;;;;;;8.18;3.40;;;8.20;99.90;;;;;;4895726;29;20124;-76
2022/05/25 03:58:38;;;;;;;5.13;2.85;;;8.20;99.90;;;;;;4881666;29;20488;-76
2022/05/25 04:01:06;;;;;;;6.82;3.10;;;8.40;99.90;;;;;;4898203;29;20494;-77
2022/05/25 04:03:33;;;;;;;7.85;3.08;;;8.50;99.90;;;;;;4898248;29;20634;-76
2022/05/25 04:06:00;;;;;;;6.72;3.28;;;8.50;99.90;;;;;;4880419;29;20053;-76
2022/05/25 04:08:28;;;;;;;5.50;2.20;;;8.60;99.90;;;;;;4898819;29;20060;-76
2022/05/25 04:10:55;;;;;;;7.25;2.60;;;8.70;99.90;;;;;;4897798;29;20052;-76
2022/05/25 04:13:22;;;;;;;4.35;3.10;;;8.70;99.90;;;;;;4897076;29;20139;-75
2022/05/25 04:15:50;;;;;;;7.63;3.42;;;8.80;99.90;;;;;;4897428;29;20458;-76
2022/05/25 04:18:18;;;;;;;4.18;3.00;;;8.90;99.90;;;;;;4896915;29;20052;-76
2022/05/25 04:20:45;;;;;;;6.05;3.80;;;8.90;99.90;;;;;;4896649;29;20084;-76
2022/05/25 04:23:12;;;;;;;6.93;3.30;;;8.90;99.90;;;;;;4896732;29;20070;-75
2022/05/25 04:25:41;;;;;;;4.88;3.20;;;9.00;99.90;;;;;;4897480;29;20609;-75
2022/05/25 04:28:08;;;;;;;16.83;3.58;;;9.10;99.90;;;;;;4897960;29;20056;-75
2022/05/25 04:30:36;;;;;;;7.40;3.65;;;9.20;99.90;;;;;;4892079;29;20501;-75
2022/05/25 04:33:04;;;;;;;6.93;2.50;;;9.20;99.90;;;;;;4897383;29;20056;-76
2022/05/25 04:35:31;;;;;;;9.00;2.97;;;9.30;99.90;;;;;;4896099;29;20068;-76
2022/05/25 04:37:59;;;;;;;5.63;2.85;;;9.40;99.90;;;;;;4897859;29;20116;-75
2022/05/25 04:40:29;;;;;;;7.35;2.88;;;9.50;99.90;;;;;;4895373;29;20045;-75
2022/05/25 04:42:58;;;;;;;7.55;3.28;;;9.60;99.90;;;;;;4895803;29;20429;-76
2022/05/25 04:45:26;;;;;;;6.70;2.60;;;9.60;99.90;;;;;;4888433;29;20132;-76
2022/05/25 04:47:55;;;;;;;5.80;2.95;;;9.70;99.90;;;;;;4897926;29;20058;-76
2022/05/25 04:50:25;;;;;;;6.65;3.05;;;9.80;99.90;;;;;;4895842;29;20052;-76
2022/05/25 04:52:53;;;;;;;12.25;3.42;;;9.80;99.90;;;;;;4896996;29;20100;-73
2022/05/25 04:58:19;;;;;;;6.60;3.00;;;10.00;99.90;;;;;;4896488;29;20068;-74
2022/05/25 05:00:46;;;;;;;10.57;3.08;;;10.10;99.90;;;;;;4896489;29;20053;-76
2022/05/25 05:03:13;;;;;;;5.53;3.65;;;10.20;99.90;;;;;;4895312;29;20059;-74
2022/05/25 05:05:42;;;;;;;11.32;3.75;;;10.20;99.90;;;;;;4887147;29;20053;-75
2022/05/25 05:08:09;;;;;;;6.25;3.40;;;10.30;99.90;;;;;;4879711;29;20047;-75
2022/05/25 05:10:37;;;;;;;11.52;3.60;;;10.30;99.90;;;;;;4897400;29;20143;-75
2022/05/25 05:13:05;;;;;;;8.77;3.22;;;10.40;99.90;;;;;;4897670;29;20072;-75
2022/05/25 05:15:33;;;;;;;7.43;3.30;;;10.60;99.90;;;;;;4895903;29;20048;-74
2022/05/25 05:18:01;;;;;;;6.00;3.22;;;10.70;99.90;;;;;;4892793;29;20044;-74
2022/05/25 05:20:50;;;;;;;11.65;3.60;;;10.90;99.90;;;;;;4896097;29;20156;-74
2022/05/25 05:23:17;;;;;;;13.73;4.07;;;11.10;99.90;;;;;;4879638;29;20051;-74
2022/05/25 05:25:44;;;;;;;6.55;3.08;;;11.30;99.90;;;;;;4894953;29;20092;-74
2022/05/25 05:28:15;;;;;;;10.13;3.75;;;11.40;99.90;;;;;;4895356;29;20131;-75
2022/05/25 05:30:48;;;;;;;10.73;4.05;;;11.70;99.90;;;;;;4894922;29;20048;-75
2022/05/25 05:33:15;;;;;;;10.10;5.28;;;12.10;99.90;;;;;;4897403;29;20068;-74
2022/05/25 05:35:43;;;;;;;8.93;3.63;;;12.60;99.90;;;;;;4894478;29;20046;-74
2022/05/25 05:38:13;;;;;;;13.30;4.13;;;13.20;99.90;;;;;;4895097;29;20082;-75
2022/05/25 05:40:40;;;;;;;14.73;3.67;;;13.70;99.90;;;;;;4894471;29;20059;-76
2022/05/25 05:43:09;;;;;;;11.20;3.83;;;14.20;99.90;;;;;;4879807;29;20101;-74
2022/05/25 05:45:39;;;;;;;4.80;2.58;;;14.60;94.20;;;;;;4894655;29;20083;-76
2022/05/25 05:48:10;;;;;;;5.63;3.20;;;15.00;93.20;;;;;;4896526;29;20052;-78
2022/05/25 05:50:40;;;;;;;8.93;2.53;;;15.30;88.70;;;;;;4896917;29;20052;-76
2022/05/25 05:53:11;;;;;;;11.70;2.67;;;15.70;79.90;;;;;;4895091;29;20047;-76
2022/05/25 05:55:41;;;;;;;12.80;2.90;;;16.10;79.90;;;;;;4896637;29;20061;-77
2022/05/25 05:58:08;;;;;;;11.52;2.90;;;16.60;77.20;;;;;;4877224;29;20219;-77
2022/05/25 06:00:35;;;;;;;4.85;2.50;;;17.00;72.90;;;;;;4896551;29;20466;-76
2022/05/25 06:03:02;;;;;;;6.57;2.58;;;17.40;69.20;;;;;;4895540;29;20052;-78
2022/05/25 06:05:30;;;;;;;6.28;2.40;;;17.60;70.00;;;;;;4888429;29;20103;-78
2022/05/25 06:07:57;;;;;;;6.90;2.55;;;17.90;67.10;;;;;;4896111;29;20056;-79
2022/05/25 06:10:25;;;;;;;10.55;3.13;;;18.30;67.00;;;;;;4895248;29;20436;-74
2022/05/25 06:12:54;;;;;;;8.90;3.35;;;18.60;64.20;;;;;;4895446;29;20080;-75
2022/05/25 06:21:05;;;;;;;16.27;3.00;;;19.60;58.10;;;;;;4855907;29;20056;-75
2022/05/25 06:23:33;;;;;;;11.50;2.83;;;20.10;57.50;;;;;;4873937;29;20479;-74
2022/05/25 06:26:00;;;;;;;7.05;3.13;;;20.20;56.40;;;;;;4879808;29;20052;-74
2022/05/25 06:28:29;;;;;;;4.05;2.28;;;20.20;56.40;;;;;;4894689;29;20056;-76
2022/05/25 06:30:56;;;;;;;3.33;2.63;;;20.30;55.80;;;;;;4891448;29;20053;-76
2022/05/25 06:33:23;;;;;;;4.38;2.53;;;20.40;53.60;;;;;;4889022;29;20065;-76
2022/05/25 06:35:50;;;;;;;4.75;2.80;;;20.60;54.60;;;;;;4895340;29;20060;-76
2022/05/25 06:38:17;;;;;;;4.80;2.35;;;20.90;55.50;;;;;;4890632;29;20076;-77
2022/05/25 06:40:45;;;;;;;5.22;2.42;;;21.10;53.40;;;;;;4885638;29;20425;-75
2022/05/25 06:43:12;;;;;;;5.28;2.83;;;21.50;52.20;;;;;;4888966;29;20044;-75
2022/05/25 06:45:45;;;;;;;7.15;2.63;;;21.70;51.60;;;;;;4890957;29;20428;-76
2022/05/25 06:48:12;;;;;;;6.00;2.60;;;21.80;51.80;;;;;;4886473;29;20048;-73
2022/05/25 06:50:39;;;;;;;7.57;2.97;;;22.00;51.50;;;;;;4894195;29;20148;-73
2022/05/25 06:53:07;;;;;;;5.72;2.40;;;22.20;51.60;;;;;;4893103;29;20059;-74
2022/05/25 06:55:42;;;;;;;5.50;2.10;;;22.20;51.30;;;;;;4905642;29;20513;-75
2022/05/25 06:58:09;;;;;;;2.75;2.17;;;22.40;50.40;;;;;;4894457;29;20067;-72
2022/05/25 07:00:37;;;;;;;3.63;2.30;;;22.60;49.30;;;;;;4892923;29;20060;-73
2022/05/25 07:03:06;;;;;;;5.40;2.50;;;22.80;49.20;;;;;;4895319;29;20083;-75
2022/05/25 07:05:35;;;;;;;6.32;2.50;;;22.90;47.60;;;;;;4876525;29;20059;-76
2022/05/25 07:08:03;;;;;;;5.20;2.50;;;23.00;47.80;;;;;;4896554;29;20052;-76
2022/05/25 07:10:30;;;;;;;9.38;3.33;;;23.40;47.00;;;;;;4897907;29;20057;-76
2022/05/25 07:12:58;;;;;;;7.45;2.80;;;23.70;45.90;;;;;;4899231;29;20470;-74
2022/05/25 07:15:25;;;;;;;5.38;2.70;;;23.90;48.00;;;;;;4896959;29;20084;-75
2022/05/25 07:17:53;;;;;;;3.72;2.40;;;24.00;48.10;;;;;;4883696;29;20405;-72
2022/05/25 07:20:21;;;;;;;6.65;2.55;;;24.10;47.10;;;;;;4878274;29;20061;-72
2022/05/25 07:22:49;;;;;;;12.50;6.78;;;24.30;47.80;;;;;;4878987;29;20049;-72
2022/05/25 07:25:16;;;;;;;8.10;3.30;;;24.60;46.20;;;;;;4894467;29;20071;-72
2022/05/25 07:27:44;;;;;;;6.35;2.78;;;24.80;46.10;;;;;;4894331;29;20127;-77
2022/05/25 07:30:12;;;;;;;5.95;2.75;;;24.90;45.80;;;;;;4887739;29;20117;-77
2022/05/25 07:32:40;;;;;;;10.77;2.40;;;25.10;44.90;;;;;;4897160;29;20061;-77
2022/05/25 07:35:10;;;;;;;4.20;2.50;;;25.40;45.20;;;;;;4902664;29;20047;-76
2022/05/25 07:37:41;;;;;;;6.20;2.30;;;25.50;44.60;;;;;;4896900;29;20055;-76
2022/05/25 07:40:14;;;;;;;3.83;2.13;;;25.70;43.90;;;;;;4897540;29;20056;-77
2022/05/25 07:42:44;;;;;;;7.70;2.42;;;25.50;43.00;;;;;;4893340;29;20912;-77
2022/05/25 07:45:12;;;;;;;7.57;2.25;;;25.50;43.70;;;;;;4893486;29;20581;-76
2022/05/25 07:47:39;;;;;;;7.82;2.22;;;25.50;44.20;;;;;;4894923;29;20084;-75
2022/05/25 07:50:08;;;;;;;5.13;2.28;;;25.60;42.00;;;;;;4891738;29;20069;-74
2022/05/25 07:52:40;;;;;;;6.40;2.30;;;25.60;42.60;;;;;;4893765;29;20056;-74
2022/05/25 07:55:11;;;;;;;7.28;4.90;;;25.80;42.90;;;;;;4891080;29;20052;-74
2022/05/25 07:57:38;;;;;;;9.98;2.55;;;26.10;44.30;;;;;;4896970;29;20147;-73
2022/05/25 08:00:07;;;;;;;6.40;2.25;;;26.30;41.80;;;;;;4878563;29;20100;-73
2022/05/25 08:05:44;;;;;;;4.20;2.28;;;27.00;40.80;;;;;;4890148;29;20049;-78
2022/05/25 08:08:16;;;;;;;5.40;2.17;;;27.10;42.00;;;;;;4892981;29;20052;-78
2022/05/25 08:10:45;;;;;;;5.63;2.10;;;27.40;41.80;;;;;;4893258;29;20052;-78
2022/05/25 08:13:17;;;;;;;4.00;1.85;;;27.70;40.50;;;;;;4895342;29;20832;-76
2022/05/25 08:15:44;;;;;;;;;;;27.70;40.40;;;;;;4901801;29;20490;-76
2022/05/25 08:18:12;;;;;;;6.25;2.30;;;27.70;40.90;;;;;;4916844;29;20316;-76
2022/05/25 08:20:40;;;;;;;8.38;2.50;;;27.80;39.90;;;;;;4892448;29;20048;-74
2022/05/25 08:23:08;;;;;;;8.30;2.40;;;28.10;38.90;;;;;;4896880;29;20044;-74
2022/05/25 08:25:37;;;;;;;6.22;2.63;;;28.10;39.50;;;;;;4889520;29;20049;-74
2022/05/25 08:28:04;;;;;;;23.27;3.38;;;28.10;40.00;;;;;;4898244;29;20135;-75
2022/05/25 08:30:34;;;;;;;11.18;2.90;;;28.30;40.20;;;;;;4897514;29;20056;-76
2022/05/25 08:33:01;;;;;;;8.55;3.45;;;28.70;39.20;;;;;;4881361;29;20109;-76
2022/05/25 08:35:30;;;;;;;5.38;2.50;;;28.70;40.20;;;;;;4889191;29;20056;-76
2022/05/25 08:37:57;;;;;;;4.05;2.25;;;28.90;40.50;;;;;;4893856;29;20151;-75
2022/05/25 08:40:26;;;;;;;9.45;2.10;;;29.00;38.80;;;;;;4894242;29;20040;-76
2022/05/25 08:43:00;;;;;;;3.95;2.33;;;28.60;38.70;;;;;;4892848;29;20100;-76
2022/05/25 08:45:36;;;;;;;8.13;3.05;;;28.70;40.10;;;;;;4893203;29;20053;-74
2022/05/25 08:48:05;;;;;;;8.98;2.50;;;29.00;40.50;;;;;;4894804;29;20100;-74
2022/05/25 08:50:33;;;;;;;2.88;2.30;;;29.10;39.40;;;;;;4894280;29;20048;-75
2022/05/25 08:53:02;;;;;;;5.45;2.47;;;29.30;38.70;;;;;;4893875;29;20061;-76
2022/05/25 08:55:48;;;;;;;2.65;2.22;;;29.50;38.20;;;;;;4885667;29;20419;-77
2022/05/25 08:58:17;;;;;;;6.47;2.10;;;29.60;38.30;;;;;;4896216;29;20522;-76
2022/05/25 09:00:48;;;;;;;6.10;2.58;;;29.80;37.10;;;;;;4908783;29;20045;-74
2022/05/25 09:03:23;;;;;;;6.00;2.42;;;30.00;37.50;;;;;;4895059;29;20093;-77
2022/05/25 09:05:59;;;;;;;8.32;2.42;;;29.90;38.40;;;;;;4892809;29;20049;-80
2022/05/25 09:08:32;;;;;;;5.70;2.60;;;29.80;38.40;;;;;;4894197;29;20048;-78
2022/05/25 09:11:07;;;;;;;4.45;2.72;;;29.80;38.40;;;;;;4893238;29;20096;-78
2022/05/25 09:13:40;;;;;;;8.93;2.35;;;29.50;39.40;;;;;;4895941;29;20108;-78
2022/05/25 09:16:18;;;;;;;7.93;2.55;;;29.50;39.10;;;;;;4891763;29;20539;-82
2022/05/25 09:18:55;;;;;;;7.68;2.75;;;29.50;37.80;;;;;;4892346;29;20433;-80
2022/05/25 09:21:27;;;;;;;7.20;2.83;;;30.00;39.00;;;;;;4877610;29;20048;-80
2022/05/25 09:23:58;;;;;;;5.72;2.70;;;30.20;38.20;;;;;;4893690;29;20090;-79
2022/05/25 09:26:26;;;;;;;8.85;2.35;;;30.60;38.20;;;;;;4893462;29;20067;-79
2022/05/25 09:28:58;;;;;;;6.53;2.60;;;30.50;36.80;;;;;;4894453;29;20255;-78
2022/05/25 09:31:31;;;;;;;3.90;2.33;;;30.60;37.20;;;;;;4892870;29;20425;-79
2022/05/25 09:34:03;;;;;;;7.43;2.70;;;30.60;37.30;;;;;;4907581;29;20045;-80
2022/05/25 09:36:34;;;;;;;5.38;2.65;;;30.70;36.10;;;;;;4891685;29;20068;-78
2022/05/25 09:39:05;;;;;;;5.10;2.90;;;31.00;37.50;;;;;;4892212;29;20055;-75
2022/05/25 09:41:33;;;;;;;4.45;2.33;;;31.10;35.70;;;;;;4889252;29;20036;-76
2022/05/25 09:44:06;;;;;;;5.72;2.40;;;31.30;35.70;;;;;;4893207;29;20100;-76
2022/05/25 09:46:36;;;;;;;9.23;2.83;;;31.30;35.30;;;;;;4892060;29;20193;-76
2022/05/25 09:49:07;;;;;;;9.45;2.88;;;31.20;35.70;;;;;;4892159;29;20528;-76
2022/05/25 09:51:37;;;;;;;6.68;2.58;;;31.40;35.60;;;;;;4893235;29;20494;-76
2022/05/25 09:54:12;;;;;;;6.20;2.80;;;31.50;35.00;;;;;;4892503;29;20080;-75
2022/05/25 09:56:43;;;;;;;7.47;2.70;;;31.60;36.30;;;;;;4894224;29;20433;-77
2022/05/25 09:59:15;;;;;;;5.17;2.67;;;31.50;34.30;;;;;;5129275;23;20520;-76
2022/05/25 10:01:45;;;;;;;8.63;2.85;;;31.50;33.90;;;;;;4902664;29;20163;-81
2022/05/25 10:04:17;;;;;;;10.05;2.80;;;31.50;34.00;;;;;;4890836;29;20509;-80
2022/05/25 10:06:50;;;;;;;4.95;2.30;;;31.80;34.90;;;;;;4883574;29;20060;-78
2022/05/25 10:09:20;;;;;;;5.63;2.63;;;32.00;34.70;;;;;;4884665;29;20052;-79
2022/05/25 10:11:50;;;;;;;160.40;16.13;;;32.20;33.60;;;;;;4883563;29;20100;-78
2022/05/25 10:14:25;;;;;;;66.75;7.40;;;31.90;33.90;;;;;;4884179;29;20040;-76
2022/05/25 10:16:56;;;;;;;8.32;2.80;;;31.50;34.40;;;;;;4884146;29;20052;-76
2022/05/25 10:19:24;;;;;;;203.18;19.25;;;31.30;35.10;;;;;;4899406;29;20424;-74
2022/05/25 10:21:53;;;;;;;23.15;3.85;;;31.70;35.40;;;;;;4881829;29;20423;-76
2022/05/25 10:24:27;;;;;;;12.65;2.97;;;32.10;34.50;;;;;;4883172;29;20052;-76
2022/05/25 10:27:00;;;;;;;29.90;4.72;;;32.50;34.10;;;;;;4884486;29;20104;-78
2022/05/25 10:38:10;;;;;;;4.93;2.40;;;32.50;34.70;;;;;;4881875;29;20057;-78
2022/05/25 10:40:42;;;;;;;4.63;2.67;;;32.60;34.30;;;;;;4886346;29;20055;-82
2022/05/25 10:43:13;;;;;;;;;;;32.40;33.40;;;;;;4887297;29;20052;-79
2022/05/25 10:45:51;;;;;;;15.98;6.15;;;31.90;34.90;;;;;;4884851;29;20380;-77
2022/05/25 10:48:34;;;;;;;10.50;2.63;;;31.70;36.20;;;;;;4884611;29;20375;-78
2022/05/25 10:51:08;;;;;;;11.07;2.72;;;32.00;35.20;;;;;;4884167;29;20529;-78
2022/05/25 10:53:38;;;;;;;8.70;2.90;;;31.60;35.70;;;;;;4884997;29;20505;-77
2022/05/25 10:56:14;;;;;;;10.88;4.35;;;31.70;36.50;;;;;;4886948;29;20072;-78
2022/05/25 10:58:57;;;;;;;6.50;2.65;;;32.20;37.30;;;;;;4867122;29;20060;-78
2022/05/25 11:01:39;;;;;;;;;;;32.80;36.20;;;;;;4885745;29;20045;-77
2022/05/25 11:04:38;;;;;;;3.20;2.05;;;32.90;34.10;;;;;;4897357;29;20002;-78
2022/05/25 11:07:20;;;;;;;5.05;2.22;;;32.60;35.10;;;;;;4875812;29;20107;-77
2022/05/25 11:10:19;;;;;;;8.75;3.00;;;32.40;34.70;;;;;;4885640;29;20067;-79
2022/05/25 11:13:00;;;;;;;7.05;2.80;;;32.50;35.20;;;;;;4868896;29;20413;-77
2022/05/25 11:15:37;;;;;;;8.77;3.03;;;32.90;34.10;;;;;;4885356;29;20056;-77
2022/05/25 11:18:23;;;;;;;10.30;2.72;;;33.10;34.20;;;;;;4884123;29;20473;-76
2022/05/25 11:20:59;;;;;;;4.95;2.53;;;32.70;34.90;;;;;;4883541;29;20143;-78
2022/05/25 11:23:59;;;;;;;10.73;2.67;;;33.20;34.60;;;;;;4884837;29;20113;-78
2022/05/25 11:26:45;;;;;;;6.00;3.03;;;33.50;34.70;;;;;;4879199;29;20167;-79
2022/05/25 11:29:25;;;;;;;7.05;2.20;;;33.50;33.40;;;;;;4884050;29;20094;-78
2022/05/25 11:32:00;;;;;;;6.68;2.58;;;32.90;34.50;;;;;;4882409;29;20053;-79
2022/05/25 11:34:42;;;;;;;7.72;3.00;;;33.10;34.00;;;;;;4883189;29;20428;-76
2022/05/25 11:37:18;;;;;;;;;;;33.30;33.60;;;;;;4884620;29;20088;-74
2022/05/25 11:39:58;;;;;;;9.02;2.80;;;33.30;33.60;;;;;;4882980;29;19934;-76
2022/05/25 11:42:45;;;;;;;8.93;2.67;;;33.10;33.20;;;;;;4885920;29;20450;-76
2022/05/25 11:45:30;;;;;;;7.93;2.65;;;33.00;33.20;;;;;;4886036;29;20112;-76
2022/05/25 11:48:16;;;;;;;5.93;2.85;;;32.90;33.20;;;;;;4886955;29;20179;-76
2022/05/25 11:50:48;;;;;;;5.28;2.63;;;32.90;33.60;;;;;;4885953;29;20052;-77
2022/05/25 11:53:45;;;;;;;7.57;3.72;;;33.30;33.60;;;;;;4886655;29;20090;-78
2022/05/25 11:56:30;;;;;;;9.77;2.75;;;33.60;34.00;;;;;;4881232;29;20055;-78
2022/05/25 11:59:14;;;;;;;11.90;4.15;;;33.50;32.50;;;;;;4887003;29;20568;-77
2022/05/25 12:01:48;;;;;;;8.85;3.55;;;33.30;32.60;;;;;;4888298;29;20064;-81
2022/05/25 12:04:49;;;;;;;6.78;3.53;;;33.00;32.90;;;;;;4871350;29;20151;-78
2022/05/25 12:07:33;;;;;;;9.45;3.13;;;32.40;33.50;;;;;;4887208;29;20083;-78
2022/05/25 12:10:23;;;;;;;6.72;3.55;;;32.30;33.80;;;;;;4883961;29;20063;-78
2022/05/25 12:13:00;;;;;;;5.53;3.17;;;32.10;34.10;;;;;;4888771;29;20048;-79
2022/05/25 12:15:36;;;;;;;5.63;2.60;;;32.30;33.10;;;;;;4887058;29;20055;-83
2022/05/25 12:18:19;;;;;;;8.75;3.40;;;32.50;34.00;;;;;;4884460;29;20078;-78
2022/05/25 12:20:54;;;;;;;11.90;4.68;;;32.50;32.70;;;;;;4883915;29;20052;-78
2022/05/25 12:23:24;;;;;;;11.25;4.38;;;31.90;33.30;;;;;;4886366;29;20063;-78
2022/05/25 12:25:55;;;;;;;14.98;9.05;;;31.70;33.80;;;;;;4884570;29;20497;-78
2022/05/25 12:28:31;;;;;;;6.88;6.15;;;31.60;33.00;;;;;;4882400;29;20501;-77
2022/05/25 12:31:04;;;;;;;14.00;7.10;;;31.40;33.70;;;;;;4868287;29;20052;-76
2022/05/25 12:33:33;;;;;;;12.50;7.60;;;31.80;33.60;;;;;;4883882;29;20059;-76
2022/05/25 12:36:06;;;;;;;17.60;6.22;;;32.60;33.20;;;;;;4884585;29;20048;-77
2022/05/25 12:38:34;;;;;;;10.60;7.97;;;32.80;32.40;;;;;;4885000;29;20045;-77
2022/05/25 12:41:40;;;;;;;11.85;6.82;;;33.00;32.50;;;;;;4882405;29;20068;-78
2022/05/25 12:49:50;;;;;;;7.55;4.10;;;33.40;32.90;;;;;;4884038;29;20460;-76
2022/05/25 12:52:54;;;;;;;11.27;3.72;;;33.70;31.80;;;;;;4882312;29;20052;-77
2022/05/25 12:55:34;;;;;;;10.70;4.30;;;33.60;31.10;;;;;;4881444;29;20053;-78
2022/05/25 12:58:02;;;;;;;11.40;4.05;;;33.80;31.60;;;;;;4882957;29;20158;-78
2022/05/25 13:00:40;;;;;;;5.22;3.53;;;33.70;31.70;;;;;;4883423;29;21089;-79
2022/05/25 13:03:20;;;;;;;10.85;3.75;;;33.90;31.80;;;;;;4885794;29;20049;-77
2022/05/25 13:05:55;;;;;;;13.75;3.85;;;34.50;31.40;;;;;;4882734;29;20061;-76
2022/05/25 13:09:08;;;;;;;9.70;3.40;;;34.70;29.90;;;;;;5170901;27;20549;-75
2022/05/25 13:11:43;;;;;;;13.80;3.15;;;34.50;30.10;;;;;;5150281;27;20042;-76
2022/05/25 13:14:55;;;;;;;8.48;4.20;;;34.00;30.50;;;;;;5143014;27;20046;-78
2022/05/25 13:17:47;;;;;;;13.80;3.92;;;34.10;31.40;;;;;;5154556;27;20161;-80
2022/05/25 13:21:02;;;;;;;6.47;2.95;;;34.20;31.10;;;;;;5144194;27;20057;-81
2022/05/25 13:24:35;;;;;;;9.05;3.20;;;34.00;30.80;;;;;;5068379;28;20413;-84
2022/05/25 13:27:58;;;;;;;9.02;2.97;;;33.70;31.50;;;;;;5151672;27;20082;-83
2022/05/25 13:30:31;;;;;;;;;;;33.30;31.40;;;;;;5152297;27;20092;-82
2022/05/25 13:33:02;;;;;;;5.13;2.72;;;32.70;31.40;;;;;;5155444;27;19972;-84
2022/05/25 13:35:43;;;;;;;4.63;2.83;;;31.80;31.90;;;;;;5153897;27;20058;-79
2022/05/25 13:38:23;;;;;;;10.07;3.67;;;31.20;32.60;;;;;;5155600;27;20049;-79
2022/05/25 13:40:57;;;;;;;12.77;3.53;;;30.50;33.40;;;;;;5132979;27;20077;-78
2022/05/25 13:43:50;;;;;;;12.57;2.92;;;30.40;34.80;;;;;;5148021;27;20145;-77
2022/05/25 13:46:38;;;;;;;6.28;2.53;;;30.50;34.10;;;;;;5152915;27;20057;-78
2022/05/25 13:49:09;;;;;;;11.48;3.08;;;30.20;34.90;;;;;;5151823;27;20042;-78